Time;durP1;ratioP1;P1;durP2;ratioP2;P2;SDS_P1;SDS_P2;PMS_P1;PMS_P2;Temp;Humidity;BMP_temperature;BMP_pressure;BME280_temperature;BME280_humidity;BME280_pressure;Samples;Min_cycle;Max_cycle;Signal;HPM_P1;HPM_P2
2023/05/31 00:00:45;;;;;;;;;;;;;;;26.08;41.34;100686.00;5057106;28;1131;-41
2023/05/31 00:03:10;;;;;;;;;;;;;;;26.10;41.45;100688.53;5075209;28;1094;-40
2023/05/31 00:05:36;;;;;;;;;;;;;;;25.98;41.28;100685.38;5065837;28;1118;-40
2023/05/31 00:08:01;;;;;;;;;;;;;;;26.04;41.43;100680.13;5063837;28;1234;-40
2023/05/31 00:10:27;;;;;;;;;;;;;;;25.97;41.39;100676.47;5059111;28;1079;-39
2023/05/31 00:12:52;;;;;;;;;;;;;;;25.96;41.80;100682.06;5045607;28;1035;-40
2023/05/31 00:15:18;;;;;;;;;;;;;;;26.00;41.30;100686.06;5076368;28;1130;-40
2023/05/31 00:17:43;;;;;;;;;;;;;;;25.92;41.54;100681.56;5063140;28;1914;-40
2023/05/31 00:20:09;;;;;;;;;;;;;;;25.86;41.74;100677.69;5073816;28;1102;-39
2023/05/31 00:22:35;;;;;;;;;;;;;;;25.88;41.32;100681.06;5058763;28;1165;-38
2023/05/31 00:25:00;;;;;;;;;;;;;;;25.94;41.44;100684.94;5066246;28;1056;-40
2023/05/31 00:27:26;;;;;;;;;;;;;;;25.94;41.16;100679.53;5073546;28;992;-40
2023/05/31 00:29:51;;;;;;;;;;;;;;;26.00;41.09;100676.13;5058742;28;1245;-40
2023/05/31 00:32:17;;;;;;;;;;;;;;;25.91;41.17;100680.72;5058362;28;1282;-39
2023/05/31 00:34:42;;;;;;;;;;;;;;;25.89;41.46;100673.84;5076212;28;1093;-40
2023/05/31 00:37:08;;;;;;;;;;;;;;;26.03;41.32;100686.56;5062899;28;1975;-41
2023/05/31 00:39:33;;;;;;;;;;;;;;;26.03;41.21;100681.16;5048138;28;1224;-42
2023/05/31 00:41:59;;;;;;;;;;;;;;;26.03;41.09;100686.56;5073197;28;1007;-38
2023/05/31 00:44:24;;;;;;;;;;;;;;;25.98;41.30;100685.38;5073672;28;1265;-40
2023/05/31 00:46:50;;;;;;;;;;;;;;;26.06;41.20;100681.81;5062765;28;987;-40
2023/05/31 00:49:15;;;;;;;;;;;;;;;26.08;41.23;100687.84;5076473;28;1006;-39
2023/05/31 00:51:41;;;;;;;;;;;;;;;26.06;41.19;100684.53;5062637;28;1110;-40
2023/05/31 00:54:07;;;;;;;;;;;;;;;25.97;41.41;100689.97;5076314;28;1125;-41
2023/05/31 00:56:32;;;;;;;;;;;;;;;25.82;41.72;100687.16;5050151;28;1012;-40
2023/05/31 00:58:58;;;;;;;;;;;;;;;25.87;41.40;100686.63;5076051;28;1980;-41
2023/05/31 01:01:26;;;;;;;;;;;;;;;26.01;41.07;100688.56;5041507;28;1078;-40
2023/05/31 01:03:56;;;;;;;;;;;;;;;25.90;41.55;100687.13;5048314;28;1073;-39
2023/05/31 01:06:23;;;;;;;;;;;;;;;25.89;41.32;100696.22;5044826;28;1258;-40
2023/05/31 01:08:50;;;;;;;;;;;;;;;25.89;41.24;100681.91;5075285;28;1143;-41
2023/05/31 01:11:22;;;;;;;;;;;;;;;25.92;41.15;100689.66;5071693;28;1126;-40
2023/05/31 01:14:06;;;;;;;;;;;;;;;25.92;41.54;100687.78;5049620;28;1316;-40
2023/05/31 01:16:32;;;;;;;;;;;;;;;25.91;41.49;100694.19;5050869;28;1068;-39
2023/05/31 01:19:02;;;;;;;;;;;;;;;25.95;41.06;100688.44;5057288;28;1985;-39
2023/05/31 01:21:51;;;;;;;;;;;;;;;25.94;41.30;100686.78;5049325;28;943;-39
2023/05/31 01:24:26;;;;;;;;;;;;;;;25.93;40.79;100685.91;5069370;28;1537;-40
2023/05/31 01:26:58;;;;;;;;;;;;;;;25.92;41.24;100682.38;5038131;28;1079;-39
2023/05/31 01:29:24;;;;;;;;;;;;;;;26.08;40.70;100686.00;5038321;28;1083;-40
2023/05/31 01:31:51;;;;;;;;;;;;;;;26.09;40.88;100687.69;5055197;28;1076;-40
2023/05/31 01:34:17;;;;;;;;;;;;;;;26.00;40.95;100686.06;5066953;28;1118;-39
2023/05/31 01:36:42;;;;;;;;;;;;;;;26.03;40.99;100689.25;5061321;28;1158;-39
2023/05/31 01:39:10;;;;;;;;;;;;;;;26.03;40.79;100691.09;5061959;28;1369;-40
2023/05/31 01:41:39;;;;;;;;;;;;;;;25.98;40.91;100683.53;5061637;28;1284;-40
2023/05/31 01:44:05;;;;;;;;;;;;;;;25.95;41.04;100677.66;5079242;28;1070;-40
2023/05/31 01:46:33;;;;;;;;;;;;;;;26.20;40.34;100680.22;5047115;28;1306;-39
2023/05/31 01:48:58;;;;;;;;;;;;;;;26.12;40.49;100686.50;5049708;28;1096;-40
2023/05/31 01:51:24;;;;;;;;;;;;;;;26.01;40.94;100690.41;5048218;28;1155;-40
2023/05/31 01:53:50;;;;;;;;;;;;;;;26.02;40.76;100684.88;5061474;28;1094;-41
2023/05/31 01:56:15;;;;;;;;;;;;;;;26.01;40.83;100687.72;5079052;28;1134;-40
2023/05/31 01:58:41;;;;;;;;;;;;;;;25.89;41.18;100690.81;5053503;28;1922;-40
2023/05/31 02:01:10;;;;;;;;;;;;;;;26.08;40.68;100691.41;5041306;28;1403;-41
2023/05/31 02:03:37;;;;;;;;;;;;;;;26.13;40.24;100697.09;5049896;28;1138;-40
2023/05/31 02:06:02;;;;;;;;;;;;;;;26.13;40.48;100696.25;5077954;28;1158;-40
2023/05/31 02:08:28;;;;;;;;;;;;;;;26.07;40.32;100692.44;5049168;28;1197;-40
2023/05/31 02:10:54;;;;;;;;;;;;;;;26.08;40.71;100685.16;5047713;28;1107;-40
2023/05/31 02:13:20;;;;;;;;;;;;;;;26.22;40.21;100688.97;5061181;28;1103;-39
2023/05/31 02:15:45;;;;;;;;;;;;;;;26.03;40.47;100691.09;5059656;28;1604;-39
2023/05/31 02:18:12;;;;;;;;;;;;;;;26.23;40.23;100693.31;5048974;28;1981;-40
2023/05/31 02:20:38;;;;;;;;;;;;;;;26.19;40.50;100692.03;5066010;28;1193;-40
2023/05/31 02:23:03;;;;;;;;;;;;;;;26.09;40.40;100692.25;5061287;28;1050;-41
2023/05/31 02:25:31;;;;;;;;;;;;;;;26.15;40.32;100692.38;5047470;28;1168;-40
2023/05/31 02:27:58;;;;;;;;;;;;;;;26.19;40.04;100697.41;5070944;28;1171;-39
2023/05/31 02:30:25;;;;;;;;;;;;;;;25.98;40.68;100694.31;5072105;28;1071;-37
2023/05/31 02:32:51;;;;;;;;;;;;;;;26.01;40.40;100690.41;5067374;28;1146;-39
2023/05/31 02:35:16;;;;;;;;;;;;;;;25.98;40.66;100693.47;5065574;28;1051;-40
2023/05/31 02:37:42;;;;;;;;;;;;;;;26.01;40.43;100699.34;5070270;28;1971;-40
2023/05/31 02:40:08;;;;;;;;;;;;;;;26.05;40.25;100694.47;5073649;28;1135;-40
2023/05/31 02:42:37;;;;;;;;;;;;;;;26.14;40.08;100692.56;5078570;28;1125;-39
2023/05/31 02:45:03;;;;;;;;;;;;;;;26.23;39.87;100694.19;5059612;28;1186;-40
2023/05/31 02:47:29;;;;;;;;;;;;;;;26.20;40.16;100702.63;5078916;28;1122;-40
2023/05/31 02:49:55;;;;;;;;;;;;;;;25.93;40.59;100702.09;5076445;28;1157;-40
2023/05/31 02:52:26;;;;;;;;;;;;;;;26.12;40.00;100705.38;5041171;28;1518;-40
2023/05/31 02:55:14;;;;;;;;;;;;;;;26.01;40.40;100702.06;5058971;28;1296;-40
2023/05/31 02:58:06;;;;;;;;;;;;;;;26.13;40.24;100715.13;5077643;28;1967;-40
2023/05/31 03:00:34;;;;;;;;;;;;;;;26.00;40.38;100711.16;5060515;28;1650;-42
2023/05/31 03:03:00;;;;;;;;;;;;;;;26.07;40.62;100711.31;5057011;28;1398;-39
2023/05/31 03:05:48;;;;;;;;;;;;;;;26.18;39.78;100715.44;5040421;28;1143;-40
2023/05/31 03:08:14;;;;;;;;;;;;;;;25.94;40.53;100722.66;5040810;28;1195;-41
2023/05/31 03:10:39;;;;;;;;;;;;;;;26.01;40.83;100720.91;5058353;28;876;-40
2023/05/31 03:13:05;;;;;;;;;;;;;;;25.96;40.49;100731.38;5060294;28;1170;-41
2023/05/31 03:15:30;;;;;;;;;;;;;;;25.86;40.90;100736.16;5065478;28;1141;-41
2023/05/31 03:17:56;;;;;;;;;;;;;;;26.13;40.41;100728.59;5040673;28;1911;-40
2023/05/31 03:20:22;;;;;;;;;;;;;;;26.03;40.52;100724.28;5056705;28;1276;-43
2023/05/31 03:22:47;;;;;;;;;;;;;;;25.42;42.18;100722.13;5059884;28;1316;-43
2023/05/31 03:25:13;;;;;;;;;;;;;;;25.02;42.91;100720.19;5059422;28;1453;-43
2023/05/31 03:27:38;;;;;;;;;;;;;;;24.77;43.80;100732.75;5050079;28;1106;-44
2023/05/31 03:30:06;;;;;;;;;;;;;;;24.84;43.74;100733.75;5074960;28;1107;-43
2023/05/31 03:32:35;;;;;;;;;;;;;;;24.88;43.48;100734.25;5053997;28;1062;-43
2023/05/31 03:35:00;;;;;;;;;;;;;;;24.68;44.15;100729.22;5058056;28;1133;-43
2023/05/31 03:37:26;;;;;;;;;;;;;;;24.74;44.16;100733.91;5060083;28;1906;-43
2023/05/31 03:40:00;;;;;;;;;;;;;;;25.09;43.12;100733.78;5078066;28;1122;-43
2023/05/31 03:42:31;;;;;;;;;;;;;;;25.06;43.32;100734.13;5059730;28;1468;-43
2023/05/31 03:44:57;;;;;;;;;;;;;;;24.88;43.68;100735.13;5046081;28;1119;-42
2023/05/31 03:47:22;;;;;;;;;;;;;;;25.14;43.41;100736.81;5053681;28;1195;-44
2023/05/31 03:49:48;;;;;;;;;;;;;;;24.20;46.18;100733.34;5070282;28;1122;-40
2023/05/31 03:52:13;;;;;;;;;;;;;;;23.35;48.30;100734.91;5063732;28;1071;-41
2023/05/31 03:54:39;;;;;;;;;;;;;;;24.09;46.41;100745.19;5043233;28;1167;-41
2023/05/31 03:57:05;;;;;;;;;;;;;;;23.66;47.63;100747.88;5058455;28;2028;-42
2023/05/31 03:59:31;;;;;;;;;;;;;;;23.83;47.79;100759.53;5055374;28;1172;-42
2023/05/31 04:01:57;;;;;;;;;;;;;;;24.03;47.40;100758.44;5047709;28;1254;-42
2023/05/31 04:04:25;;;;;;;;;;;;;;;24.06;46.89;100758.09;5050535;28;1236;-43
2023/05/31 04:06:52;;;;;;;;;;;;;;;24.55;44.89;100762.84;5057595;28;1492;-42
2023/05/31 04:09:17;;;;;;;;;;;;;;;24.95;43.89;100756.84;5061919;28;1195;-43
2023/05/31 04:11:43;;;;;;;;;;;;;;;25.26;43.04;100760.69;5050187;28;1107;-43
2023/05/31 04:14:09;;;;;;;;;;;;;;;25.30;42.69;100768.28;5045516;28;1139;-38
2023/05/31 04:16:35;;;;;;;;;;;;;;;25.33;43.37;100763.53;5043167;28;1282;-39
2023/05/31 04:19:00;;;;;;;;;;;;;;;25.00;44.94;100764.41;5059211;28;1988;-38
2023/05/31 04:21:27;;;;;;;;;;;;;;;24.66;45.62;100766.19;5057089;28;1160;-37
2023/05/31 04:23:53;;;;;;;;;;;;;;;24.53;45.23;100767.53;5059696;28;1298;-39
2023/05/31 04:26:19;;;;;;;;;;;;;;;24.85;45.27;100770.44;5058985;28;1130;-38
2023/05/31 04:28:51;;;;;;;;;;;;;;;24.65;46.12;100769.91;5059285;28;1186;-38
2023/05/31 04:31:17;;;;;;;;;;;;;;;24.99;45.88;100771.63;5045530;28;1390;-38
2023/05/31 04:33:44;;;;;;;;;;;;;;;24.62;46.26;100781.00;5057332;28;1610;-37
2023/05/31 04:36:10;;;;;;;;;;;;;;;24.61;45.59;100776.63;5034341;28;1227;-39
2023/05/31 04:38:36;;;;;;;;;;;;;;;24.76;45.29;100779.47;5039179;28;1971;-38
2023/05/31 04:41:03;;;;;;;;;;;;;;;25.03;45.38;100777.53;5039144;28;1222;-39
2023/05/31 04:43:29;;;;;;;;;;;;;;;25.07;44.96;100777.00;5047378;28;1261;-37
2023/05/31 04:45:55;;;;;;;;;;;;;;;24.40;47.42;100777.91;5056328;28;1417;-37
2023/05/31 04:48:21;;;;;;;;;;;;;;;24.50;46.64;100781.31;5056614;28;1495;-37
2023/05/31 04:50:51;;;;;;;;;;;;;;;24.83;45.55;100784.06;5047834;28;1214;-38
2023/05/31 04:53:16;;;;;;;;;;;;;;;25.00;44.77;100786.78;5042774;28;1002;-38
2023/05/31 04:55:42;;;;;;;;;;;;;;;25.28;43.99;100790.97;5075921;28;1127;-37
2023/05/31 04:58:08;;;;;;;;;;;;;;;25.31;42.74;100794.16;5052153;28;1980;-38
2023/05/31 05:00:34;;;;;;;;;;;;;;;25.42;42.72;100790.28;5069954;28;1230;-39
2023/05/31 05:03:11;;;;;;;;;;;;;;;25.49;42.99;100793.13;5045060;28;1336;-39
2023/05/31 05:05:37;;;;;;;;;;;;;;;25.55;42.39;100795.16;5038917;28;1924;-39
2023/05/31 05:08:03;;;;;;;;;;;;;;;25.58;42.90;100787.72;5050568;28;1295;-38
2023/05/31 05:10:29;;;;;;;;;;;;;;;25.56;41.67;100783.34;5051671;28;1297;-37
2023/05/31 05:12:54;;;;;;;;;;;;;;;25.64;41.57;100787.91;5045957;28;1917;-40
2023/05/31 05:15:20;;;;;;;;;;;;;;;25.73;41.22;100783.34;5057009;28;1351;-38
2023/05/31 05:17:46;;;;;;;;;;;;;;;25.75;41.46;100784.03;5045997;28;1910;-39
2023/05/31 05:20:13;;;;;;;;;;;;;;;25.41;41.74;100793.13;5045044;28;1179;-41
2023/05/31 05:22:41;;;;;;;;;;;;;;;25.60;41.60;100791.09;5058098;28;1229;-41
2023/05/31 05:25:07;;;;;;;;;;;;;;;25.60;41.58;100791.94;5044533;28;1228;-41
2023/05/31 05:27:33;;;;;;;;;;;;;;;25.91;41.12;100787.66;5057897;28;1314;-42
2023/05/31 05:29:58;;;;;;;;;;;;;;;26.29;40.83;100801.31;5058254;28;1161;-41
2023/05/31 05:32:24;;;;;;;;;;;;;;;26.03;40.55;100798.91;5058406;28;1242;-41
2023/05/31 05:34:50;;;;;;;;;;;;;;;26.10;40.43;100809.84;5057382;28;1589;-43
2023/05/31 05:37:15;;;;;;;;;;;;;;;26.18;40.09;100812.50;5056333;28;1914;-42
2023/05/31 05:39:41;;;;;;;;;;;;;;;26.36;40.26;100817.66;5046494;28;1250;-42
2023/05/31 05:42:07;;;;;;;;;;;;;;;26.36;39.67;100820.38;5047297;28;1431;-41
2023/05/31 05:44:33;;;;;;;;;;;;;;;26.48;39.42;100809.19;5060827;28;1271;-44
2023/05/31 05:47:02;;;;;;;;;;;;;;;26.52;39.57;100811.38;5045127;28;1032;-41
2023/05/31 05:49:27;;;;;;;;;;;;;;;26.61;39.94;100812.13;5067694;28;1328;-41
2023/05/31 05:51:54;;;;;;;;;;;;;;;26.98;38.95;100816.94;5052965;28;1128;-42
2023/05/31 05:54:20;;;;;;;;;;;;;;;26.79;39.57;100811.03;5054549;28;1265;-42
2023/05/31 05:56:46;;;;;;;;;;;;;;;26.86;39.62;100808.47;5047831;28;1222;-42
2023/05/31 05:59:13;;;;;;;;;;;;;;;26.98;38.97;100809.69;5039041;28;1902;-42
2023/05/31 06:01:59;;;;;;;;;;;;;;;27.08;39.33;100808.63;5041604;28;1246;-41
2023/05/31 06:04:25;;;;;;;;;;;;;;;27.42;38.61;100812.75;5048229;28;1238;-41
2023/05/31 06:06:50;;;;;;;;;;;;;;;27.51;39.52;100810.78;5050439;28;1113;-44
2023/05/31 06:09:16;;;;;;;;;;;;;;;27.49;38.85;100810.13;5044635;28;1185;-43
2023/05/31 06:11:42;;;;;;;;;;;;;;;27.47;38.61;100810.31;5075257;28;983;-42
2023/05/31 06:14:09;;;;;;;;;;;;;;;27.60;37.00;100808.84;5044375;28;1238;-42
2023/05/31 06:16:39;;;;;;;;;;;;;;;27.38;37.85;100806.84;5057584;28;1344;-40
2023/05/31 06:19:05;;;;;;;;;;;;;;;27.14;37.26;100799.81;5065755;28;1906;-42
2023/05/31 06:21:31;;;;;;;;;;;;;;;26.87;36.08;100810.97;5044696;28;1149;-42
2023/05/31 06:23:57;;;;;;;;;;;;;;;27.13;36.66;100815.19;5061135;28;1114;-41
2023/05/31 06:26:23;;;;;;;;;;;;;;;27.35;37.18;100812.63;5071488;28;1281;-41
2023/05/31 06:28:49;;;;;;;;;;;;;;;27.17;37.78;100806.72;5044407;28;1332;-40
2023/05/31 06:31:33;;;;;;;;;;;;;;;27.45;36.92;100808.81;5065472;28;941;-39
2023/05/31 06:33:59;;;;;;;;;;;;;;;27.60;37.28;100811.53;5054677;28;1127;-41
2023/05/31 06:36:25;;;;;;;;;;;;;;;27.65;37.14;100814.53;5051140;28;1103;-39
2023/05/31 06:38:50;;;;;;;;;;;;;;;27.66;37.52;100818.91;5041498;28;1906;-40
2023/05/31 06:41:16;;;;;;;;;;;;;;;27.61;37.50;100821.34;5044879;28;2351;-40
2023/05/31 06:43:42;;;;;;;;;;;;;;;27.73;36.85;100821.72;5041547;28;1139;-40
2023/05/31 06:46:34;;;;;;;;;;;;;;;27.70;38.13;100822.09;5062110;28;1245;-39
2023/05/31 06:49:18;;;;;;;;;;;;;;;27.40;37.71;100814.78;5074358;28;1122;-40
2023/05/31 06:52:02;;;;;;;;;;;;;;;27.61;37.39;100824.03;5072508;28;1182;-39
2023/05/31 06:54:27;;;;;;;;;;;;;;;27.64;36.65;100823.66;5079021;28;1129;-39
2023/05/31 06:56:53;;;;;;;;;;;;;;;27.72;36.95;100818.22;5058033;28;1310;-40
2023/05/31 06:59:19;;;;;;;;;;;;;;;27.68;37.01;100822.28;5077278;28;1988;-39
2023/05/31 07:01:44;;;;;;;;;;;;;;;27.55;37.30;100816.66;5058343;28;1120;-41
2023/05/31 07:04:10;;;;;;;;;;;;;;;27.48;37.68;100809.28;5071295;28;1202;-40
2023/05/31 07:06:37;;;;;;;;;;;;;;;27.71;36.58;100816.50;5044812;28;1125;-40
2023/05/31 07:09:06;;;;;;;;;;;;;;;27.73;37.02;100822.59;5060400;28;1184;-39
2023/05/31 07:11:35;;;;;;;;;;;;;;;27.74;37.15;100824.25;5059506;28;1138;-38
2023/05/31 07:14:03;;;;;;;;;;;;;;;27.64;37.12;100831.78;5060444;28;1190;-40
2023/05/31 07:16:29;;;;;;;;;;;;;;;27.29;35.82;100817.91;5054847;28;1305;-40
2023/05/31 07:18:57;;;;;;;;;;;;;;;27.42;36.72;100818.13;5062167;28;1985;-40
2023/05/31 07:21:22;;;;;;;;;;;;;;;27.29;37.67;100812.53;5060648;28;1144;-40
2023/05/31 07:23:48;;;;;;;;;;;;;;;27.05;38.23;100819.78;5077342;28;841;-40
2023/05/31 07:26:15;;;;;;;;;;;;;;;27.10;38.11;100818.25;5066879;28;1072;-41
2023/05/31 07:28:44;;;;;;;;;;;;;;;27.34;38.03;100819.03;5057061;28;1056;-41
2023/05/31 07:31:09;;;;;;;;;;;;;;;27.63;36.99;100819.28;5073849;28;1073;-40
2023/05/31 07:33:35;;;;;;;;;;;;;;;27.62;37.09;100823.84;5066168;28;1243;-41
2023/05/31 07:36:00;;;;;;;;;;;;;;;27.12;34.94;100812.66;5072095;28;861;-41
2023/05/31 07:38:26;;;;;;;;;;;;;;;26.82;34.93;100810.66;5075267;28;1977;-40
2023/05/31 07:40:52;;;;;;;;;;;;;;;26.92;36.38;100817.69;5065266;28;1012;-40
2023/05/31 07:43:21;;;;;;;;;;;;;;;26.84;36.90;100818.59;5059690;28;1066;-40
2023/05/31 07:45:49;;;;;;;;;;;;;;;26.92;36.34;100820.38;5069097;28;1258;-39
2023/05/31 07:48:18;;;;;;;;;;;;;;;27.30;35.31;100823.13;5070634;28;1019;-40
2023/05/31 07:50:44;;;;;;;;;;;;;;;27.58;33.60;100816.28;5066778;28;1154;-40
2023/05/31 07:53:09;;;;;;;;;;;;;;;27.29;34.76;100821.47;5076671;28;1103;-39
2023/05/31 07:55:35;;;;;;;;;;;;;;;27.45;34.45;100817.78;5067480;28;1047;-40
2023/05/31 07:58:01;;;;;;;;;;;;;;;27.53;33.10;100819.53;5073890;28;1991;-41
2023/05/31 08:00:26;;;;;;;;;;;;;;;27.34;34.20;100818.22;5067324;28;840;-40
2023/05/31 08:02:52;;;;;;;;;;;;;;;27.27;34.29;100828.91;5066634;28;1267;-41
2023/05/31 08:05:17;;;;;;;;;;;;;;;27.66;33.24;100834.28;5049237;28;1179;-39
2023/05/31 08:07:43;;;;;;;;;;;;;;;27.96;33.74;100834.34;5061968;28;1008;-39
2023/05/31 08:10:09;;;;;;;;;;;;;;;28.14;33.51;100831.25;5057275;28;1087;-41
2023/05/31 08:12:35;;;;;;;;;;;;;;;28.08;34.64;100830.13;5068878;28;1114;-40
2023/05/31 08:15:00;;;;;;;;;;;;;;;28.17;34.55;100832.72;5066487;28;1190;-41
2023/05/31 08:17:26;;;;;;;;;;;;;;;28.13;34.14;100826.84;5074266;28;1898;-41
2023/05/31 08:19:51;;;;;;;;;;;;;;;28.24;34.13;100829.06;5060276;28;1281;-41
2023/05/31 08:22:17;;;;;;;;;;;;;;;28.23;34.40;100840.09;5067153;28;1427;-40
2023/05/31 08:24:43;;;;;;;;;;;;;;;28.23;34.30;100842.78;5046105;28;1088;-42
2023/05/31 08:27:08;;;;;;;;;;;;;;;28.15;35.04;100832.06;5068121;28;1171;-41
2023/05/31 08:29:34;;;;;;;;;;;;;;;28.28;34.41;100826.84;5076765;28;1074;-41
2023/05/31 08:32:00;;;;;;;;;;;;;;;28.31;34.60;100833.75;5070111;28;1286;-42
2023/05/31 08:34:25;;;;;;;;;;;;;;;28.28;34.18;100834.94;5075322;28;1111;-42
2023/05/31 08:36:51;;;;;;;;;;;;;;;28.23;34.83;100837.38;5071002;28;1302;-41
2023/05/31 08:39:17;;;;;;;;;;;;;;;28.30;34.10;100835.59;5060454;28;1910;-40
2023/05/31 08:41:58;;;;;;;;;;;;;;;27.97;34.58;100844.97;5074390;28;1550;-40
2023/05/31 08:44:24;;;;;;;;;;;;;;;28.04;34.77;100831.53;5051988;28;1249;-39
2023/05/31 08:46:49;;;;;;;;;;;;;;;28.14;34.57;100838.53;5074757;28;1015;-40
2023/05/31 08:49:18;;;;;;;;;;;;;;;28.12;34.38;100838.72;5074277;28;1330;-41
2023/05/31 08:51:47;;;;;;;;;;;;;;;28.10;34.21;100832.63;5059478;28;1087;-38
2023/05/31 08:54:13;;;;;;;;;;;;;;;28.26;33.98;100836.19;5067060;28;857;-40
2023/05/31 08:56:38;;;;;;;;;;;;;;;28.40;34.16;100840.75;5063026;28;1052;-41
2023/05/31 08:59:07;;;;;;;;;;;;;;;28.41;34.36;100833.47;5052817;28;1993;-41
2023/05/31 09:01:33;;;;;;;;;;;;;;;28.81;32.56;100838.50;5044651;28;926;-40
2023/05/31 09:03:58;;;;;;;;;;;;;;;28.80;29.62;100831.38;5063791;28;1066;-39
2023/05/31 09:06:24;;;;;;;;;;;;;;;28.35;29.11;100821.53;5061603;28;992;-40
2023/05/31 09:08:50;;;;;;;;;;;;;;;28.03;26.67;100824.44;5071432;28;1058;-41
2023/05/31 09:11:15;;;;;;;;;;;;;;;27.41;28.17;100823.72;5069180;28;1186;-40
2023/05/31 09:13:41;;;;;;;;;;;;;;;28.02;29.05;100822.78;5055900;28;1330;-42
2023/05/31 09:16:07;;;;;;;;;;;;;;;28.50;28.11;100817.94;5073881;28;1255;-41
2023/05/31 09:18:36;;;;;;;;;;;;;;;28.70;27.48;100816.31;5066298;28;1906;-40
2023/05/31 09:21:06;;;;;;;;;;;;;;;28.79;27.56;100814.34;5071538;28;1178;-41
2023/05/31 09:23:32;;;;;;;;;;;;;;;28.96;26.18;100816.78;5077933;28;1110;-43
2023/05/31 09:25:58;;;;;;;;;;;;;;;29.14;24.99;100819.06;5073009;28;1075;-40
2023/05/31 09:28:23;;;;;;;;;;;;;;;28.92;26.45;100818.19;5063683;28;1123;-39
2023/05/31 09:31:04;;;;;;;;;;;;;;;28.69;27.52;100828.19;5075134;28;1147;-40
2023/05/31 09:33:43;;;;;;;;;;;;;;;28.82;27.58;100827.47;5061980;28;1026;-43
2023/05/31 09:36:08;;;;;;;;;;;;;;;28.76;27.19;100819.28;5061048;28;1144;-42
2023/05/31 09:38:34;;;;;;;;;;;;;;;27.81;29.10;100824.34;5056769;28;1910;-42
2023/05/31 09:41:20;;;;;;;;;;;;;;;27.73;29.74;100819.88;5062540;28;1206;-42
2023/05/31 09:43:49;;;;;;;;;;;;;;;28.73;27.54;100817.78;5074999;28;1843;-42
2023/05/31 09:46:15;;;;;;;;;;;;;;;29.08;27.18;100823.38;5065421;28;1145;-42
2023/05/31 09:48:41;;;;;;;;;;;;;;;29.04;27.02;100821.25;5062024;28;1146;-42
2023/05/31 09:51:08;;;;;;;;;;;;;;;28.63;27.63;100820.00;5066924;28;1047;-42
2023/05/31 09:53:43;;;;;;;;;;;;;;;29.14;26.41;100824.47;5066547;28;1106;-41
2023/05/31 09:56:21;;;;;;;;;;;;;;;29.14;26.16;100812.78;5051249;28;1777;-41
2023/05/31 09:58:50;;;;;;;;;;;;;;;28.82;27.29;100804.97;5055422;28;1978;-40
2023/05/31 10:01:16;;;;;;;;;;;;;;;28.57;27.86;100814.31;5072907;28;1186;-42
2023/05/31 10:03:42;;;;;;;;;;;;;;;28.44;28.19;100816.88;5059840;28;968;-41
2023/05/31 10:06:08;;;;;;;;;;;;;;;28.56;28.05;100814.50;5041796;28;1040;-40
2023/05/31 10:08:33;;;;;;;;;;;;;;;28.59;28.37;100819.53;5079260;28;1227;-41
2023/05/31 10:11:00;;;;;;;;;;;;;;;28.69;28.19;100816.50;5066087;28;1054;-41
2023/05/31 10:13:29;;;;;;;;;;;;;;;28.43;29.14;100816.00;5066257;28;1159;-42
2023/05/31 10:15:56;;;;;;;;;;;;;;;28.28;29.74;100810.59;5073159;28;1084;-42
2023/05/31 10:18:23;;;;;;;;;;;;;;;28.48;30.01;100813.59;5072516;28;1967;-39
2023/05/31 10:20:51;;;;;;;;;;;;;;;28.65;29.22;100805.22;5052069;28;1222;-39
2023/05/31 10:23:20;;;;;;;;;;;;;;;28.60;29.77;100796.84;5061383;28;1114;-43
2023/05/31 10:26:17;;;;;;;;;;;;;;;28.58;29.25;100821.38;5070226;28;925;-39
2023/05/31 10:29:02;;;;;;;;;;;;;;;28.51;29.64;100806.94;5047407;28;1225;-41
2023/05/31 10:31:30;;;;;;;;;;;;;;;28.61;30.20;100801.25;5048417;28;1327;-41
2023/05/31 10:34:00;;;;;;;;;;;;;;;28.50;29.97;100807.97;5076733;28;1155;-41
2023/05/31 10:36:27;;;;;;;;;;;;;;;28.10;30.76;100800.19;5061300;28;1051;-40
2023/05/31 10:38:55;;;;;;;;;;;;;;;27.93;30.88;100788.72;5078703;28;1984;-40
2023/05/31 10:41:21;;;;;;;;;;;;;;;27.88;30.95;100789.28;5049722;28;1186;-40
2023/05/31 10:43:48;;;;;;;;;;;;;;;27.93;31.28;100788.72;5060059;28;1051;-41
2023/05/31 10:46:20;;;;;;;;;;;;;;;27.80;31.40;100784.00;5078718;28;1086;-40
2023/05/31 10:48:46;;;;;;;;;;;;;;;28.03;31.00;100778.47;5051890;28;1162;-40
2023/05/31 10:51:12;;;;;;;;;;;;;;;28.20;30.90;100776.41;5082552;28;1111;-40
2023/05/31 10:53:38;;;;;;;;;;;;;;;28.52;30.44;100775.31;5061280;28;1210;-41
2023/05/31 10:56:07;;;;;;;;;;;;;;;28.46;30.29;100780.44;5075105;28;1063;-40
2023/05/31 10:58:38;;;;;;;;;;;;;;;28.59;30.18;100774.34;5058832;28;1965;-40
2023/05/31 11:01:05;;;;;;;;;;;;;;;28.55;30.56;100783.88;5060745;28;1354;-40
2023/05/31 11:03:31;;;;;;;;;;;;;;;28.72;30.48;100783.63;5057609;28;1242;-41
2023/05/31 11:05:59;;;;;;;;;;;;;;;28.71;30.31;100771.97;5057470;28;1341;-40
2023/05/31 11:08:25;;;;;;;;;;;;;;;28.34;30.63;100774.69;5061320;28;1219;-41
2023/05/31 11:10:50;;;;;;;;;;;;;;;28.21;31.23;100772.66;5054987;28;1227;-41
2023/05/31 11:13:16;;;;;;;;;;;;;;;28.26;31.24;100771.25;5052477;28;1008;-41
2023/05/31 11:15:42;;;;;;;;;;;;;;;28.32;31.38;100773.19;5064042;28;1302;-42
2023/05/31 11:18:11;;;;;;;;;;;;;;;28.18;31.89;100774.91;5066276;28;1906;-40
2023/05/31 11:20:37;;;;;;;;;;;;;;;28.35;31.51;100768.28;5075790;28;1247;-41
2023/05/31 11:23:21;;;;;;;;;;;;;;;28.32;31.47;100776.75;5078132;28;1258;-42
2023/05/31 11:26:05;;;;;;;;;;;;;;;28.68;31.55;100771.50;5058335;28;1005;-40
2023/05/31 11:28:31;;;;;;;;;;;;;;;28.21;32.48;100786.19;5068299;28;1110;-40
2023/05/31 11:30:56;;;;;;;;;;;;;;;28.29;32.17;100787.97;5073314;28;1342;-39
2023/05/31 11:33:23;;;;;;;;;;;;;;;28.36;31.44;100788.06;5077937;28;1186;-39
2023/05/31 11:35:48;;;;;;;;;;;;;;;28.32;31.97;100784.00;5075840;28;1099;-40
2023/05/31 11:38:15;;;;;;;;;;;;;;;28.52;31.88;100786.13;5059952;28;1910;-39
2023/05/31 11:40:40;;;;;;;;;;;;;;;29.19;29.70;100792.22;5078003;28;1098;-39
2023/05/31 11:43:06;;;;;;;;;;;;;;;28.88;29.00;100779.81;5065088;28;1030;-41
2023/05/31 11:45:33;;;;;;;;;;;;;;;29.08;29.62;100782.75;5071145;28;1063;-41
2023/05/31 11:47:58;;;;;;;;;;;;;;;28.97;29.38;100775.16;5070924;28;1213;-39
2023/05/31 11:50:24;;;;;;;;;;;;;;;27.97;30.09;100781.94;5072700;28;1238;-37
2023/05/31 11:52:50;;;;;;;;;;;;;;;29.04;27.75;100772.50;5079923;28;907;-38
2023/05/31 11:55:16;;;;;;;;;;;;;;;29.02;28.21;100779.97;5066687;28;1031;-37
2023/05/31 11:57:44;;;;;;;;;;;;;;;28.66;28.23;100787.13;5084630;28;1977;-36
2023/05/31 12:00:11;;;;;;;;;;;;;;;28.65;27.88;100794.41;5078117;28;1043;-35
2023/05/31 12:02:40;;;;;;;;;;;;;;;28.99;27.38;100785.78;5076650;28;845;-38
2023/05/31 12:05:05;;;;;;;;;;;;;;;29.25;27.57;100784.31;5057685;28;1106;-38
2023/05/31 12:07:31;;;;;;;;;;;;;;;28.85;28.15;100783.75;5070829;28;1056;-38
2023/05/31 12:09:57;;;;;;;;;;;;;;;28.76;25.95;100773.25;5064705;28;1123;-39
2023/05/31 12:12:22;;;;;;;;;;;;;;;29.38;26.44;100781.69;5077755;28;1199;-37
2023/05/31 12:14:52;;;;;;;;;;;;;;;29.18;26.70;100781.56;5076765;28;1015;-37
2023/05/31 12:17:17;;;;;;;;;;;;;;;29.02;24.74;100783.53;5062740;28;1953;-39
2023/05/31 12:19:43;;;;;;;;;;;;;;;29.16;25.16;100787.16;5047564;28;1060;-37
2023/05/31 12:22:08;;;;;;;;;;;;;;;29.23;26.19;100775.56;5062577;28;1155;-38
2023/05/31 12:24:34;;;;;;;;;;;;;;;29.23;26.29;100781.81;5057606;28;1198;-38
2023/05/31 12:27:00;;;;;;;;;;;;;;;28.88;27.20;100787.94;5042213;28;1274;-39
2023/05/31 12:29:29;;;;;;;;;;;;;;;28.46;27.24;100776.94;5063540;28;1775;-38
2023/05/31 12:32:02;;;;;;;;;;;;;;;29.15;26.66;100773.81;5070359;28;1087;-38
2023/05/31 12:34:30;;;;;;;;;;;;;;;28.89;27.89;100783.38;5047626;28;1075;-38
2023/05/31 12:36:56;;;;;;;;;;;;;;;29.06;27.09;100782.09;5062805;28;1051;-35
2023/05/31 12:39:21;;;;;;;;;;;;;;;29.15;27.57;100780.09;5063388;28;1902;-39
2023/05/31 12:41:48;;;;;;;;;;;;;;;29.04;28.33;100780.63;5071057;28;1262;-38
2023/05/31 12:44:17;;;;;;;;;;;;;;;29.16;29.12;100780.94;5058617;28;1171;-37
2023/05/31 12:46:44;;;;;;;;;;;;;;;29.52;28.47;100781.78;5076710;28;1059;-39
2023/05/31 12:49:20;;;;;;;;;;;;;;;29.09;29.69;100772.75;5076221;28;1117;-38